createdAt,value
2023-05-30T00:00:48.656Z,58.74
2023-05-30T00:05:50.721Z,58.95
2023-05-30T00:10:52.494Z,59.09
2023-05-30T00:15:55.469Z,59.23
2023-05-30T00:20:57.421Z,59.18
2023-05-30T00:26:04.501Z,59.53
2023-05-30T00:31:06.796Z,59.94
2023-05-30T00:36:08.586Z,59.68
2023-05-30T00:41:10.729Z,60.21
2023-05-30T00:46:13.236Z,60.67
2023-05-30T00:51:17.075Z,61.14
2023-05-30T00:56:19.190Z,61.52
2023-05-30T01:01:21.831Z,61.57
2023-05-30T01:06:24.965Z,61.66
2023-05-30T01:11:45.810Z,61.94
2023-05-30T01:16:58.612Z,62.17
2023-05-30T01:22:17.685Z,62.23
2023-05-30T01:27:28.059Z,62.39
2023-05-30T01:32:30.601Z,62.31
2023-05-30T01:37:32.446Z,62.41
2023-05-30T01:42:35.244Z,62.73
2023-05-30T01:47:50.768Z,62.92
2023-05-30T01:52:59.025Z,62.98
2023-05-30T01:58:02.061Z,63.26
2023-05-30T02:03:07.217Z,63.39
2023-05-30T02:08:09.176Z,63.47
2023-05-30T02:13:10.950Z,63.43
2023-05-30T02:18:14.253Z,63.55
2023-05-30T02:23:16.024Z,63.64
2023-05-30T02:28:17.928Z,64.12
2023-05-30T02:33:19.758Z,64.20
2023-05-30T02:38:22.589Z,64.76
2023-05-30T02:43:26.896Z,65.39
2023-05-30T02:48:29.100Z,67.21
2023-05-30T02:53:32.129Z,67.47
2023-05-30T02:58:34.186Z,67.48
2023-05-30T03:03:45.542Z,66.72
2023-05-30T03:09:01.921Z,66.56
2023-05-30T03:14:03.809Z,66.41
2023-05-30T03:19:07.017Z,66.64
2023-05-30T03:24:09.023Z,66.52
2023-05-30T03:29:16.639Z,66.56
2023-05-30T03:34:19.569Z,66.05
2023-05-30T03:39:21.717Z,65.97
2023-05-30T03:44:23.656Z,65.79
2023-05-30T03:49:25.532Z,65.97
2023-05-30T03:54:31.513Z,65.90
2023-05-30T03:59:33.310Z,65.43
2023-05-30T04:04:35.137Z,65.35
2023-05-30T04:09:36.944Z,65.16
2023-05-30T04:14:38.757Z,64.69
2023-05-30T04:19:40.909Z,64.53
2023-05-30T04:24:42.884Z,64.23
2023-05-30T04:29:44.643Z,63.97
2023-05-30T04:34:46.645Z,63.57
2023-05-30T04:39:49.137Z,63.51
2023-05-30T04:44:51.175Z,63.22
2023-05-30T04:49:54.981Z,62.81
2023-05-30T04:54:57.333Z,62.59
2023-05-30T04:59:59.305Z,61.64
2023-05-30T05:05:01.122Z,61.28
2023-05-30T05:10:03.349Z,59.92
2023-05-30T05:15:05.662Z,58.41
2023-05-30T05:20:10.064Z,57.37
2023-05-30T05:25:13.846Z,57.14
2023-05-30T05:30:15.823Z,56.49
2023-05-30T05:35:17.753Z,54.82
2023-05-30T05:40:20.429Z,54.17
2023-05-30T05:45:22.188Z,53.01
2023-05-30T05:50:24.051Z,52.96
2023-05-30T05:55:26.007Z,52.92
2023-05-30T06:00:28.500Z,51.88
2023-05-30T06:05:30.528Z,49.60
2023-05-30T06:10:32.324Z,50.38
2023-05-30T06:15:34.154Z,49.85
2023-05-30T06:20:36.007Z,49.45
2023-05-30T06:25:37.948Z,49.70
2023-05-30T06:30:39.749Z,48.77
2023-05-30T06:35:41.774Z,48.27
2023-05-30T06:40:43.766Z,47.90
2023-05-30T06:45:45.530Z,46.49
2023-05-30T06:50:47.365Z,46.17
2023-05-30T06:55:49.086Z,46.66
2023-05-30T07:00:51.005Z,46.97
2023-05-30T07:05:53.010Z,46.58
2023-05-30T07:10:54.966Z,46.18
2023-05-30T07:15:56.939Z,46.19
2023-05-30T07:20:58.900Z,46.40
2023-05-30T07:26:07.195Z,46.65
2023-05-30T07:31:09.061Z,46.51
2023-05-30T07:36:11.752Z,47.13
2023-05-30T07:41:13.579Z,47.30
2023-05-30T07:46:15.726Z,47.47
2023-05-30T07:51:19.091Z,46.36
2023-05-30T07:56:20.836Z,47.00
2023-05-30T08:01:22.653Z,46.20
2023-05-30T08:06:24.480Z,46.68
2023-05-30T08:11:26.543Z,45.69
2023-05-30T08:16:28.637Z,45.21
2023-05-30T08:21:32.955Z,44.52
2023-05-30T08:26:35.742Z,43.94
2023-05-30T08:31:38.490Z,44.53
2023-05-30T08:36:42.170Z,44.38
2023-05-30T08:41:43.998Z,45.50
2023-05-30T08:46:46.344Z,46.60
2023-05-30T08:51:49.264Z,46.85
2023-05-30T08:57:07.813Z,47.07
2023-05-30T09:02:10.474Z,46.14
2023-05-30T09:07:14.954Z,45.62
2023-05-30T09:12:17.354Z,43.44
2023-05-30T09:17:19.198Z,42.05
2023-05-30T09:22:20.947Z,41.55
2023-05-30T09:27:23.584Z,40.17
2023-05-30T09:32:36.037Z,39.72
2023-05-30T09:37:40.601Z,37.54
2023-05-30T09:42:43.868Z,37.16
2023-05-30T09:47:47.785Z,38.16
2023-05-30T09:52:53.286Z,36.65
2023-05-30T09:57:55.569Z,36.39
2023-05-30T10:02:59.121Z,36.12
2023-05-30T10:08:01.025Z,33.93
2023-05-30T10:13:03.553Z,33.76
2023-05-30T10:18:09.286Z,34.39
2023-05-30T10:23:14.036Z,34.37
2023-05-30T10:28:22.238Z,35.19
2023-05-30T10:33:38.278Z,35.38
2023-05-30T10:39:01.057Z,35.64
2023-05-30T10:44:18.818Z,35.00
2023-05-30T10:49:27.683Z,33.49
2023-05-30T10:54:32.076Z,33.64
2023-05-30T10:59:33.868Z,34.06
2023-05-30T11:04:43.735Z,33.76
2023-05-30T11:10:09.920Z,35.10
2023-05-30T11:15:17.199Z,34.53
2023-05-30T11:20:23.091Z,34.54
2023-05-30T11:25:27.431Z,35.40
2023-05-30T11:30:30.683Z,34.53
2023-05-30T11:35:32.910Z,34.85
2023-05-30T11:40:42.255Z,34.27
2023-05-30T11:45:47.774Z,33.65
2023-05-30T11:50:49.737Z,33.64
2023-05-30T11:55:51.530Z,33.60
2023-05-30T12:00:53.551Z,32.25
2023-05-30T12:05:56.318Z,32.38
2023-05-30T12:10:58.401Z,32.29
2023-05-30T12:16:00.645Z,31.54
2023-05-30T12:21:03.990Z,31.68
2023-05-30T12:26:06.066Z,32.57
2023-05-30T12:31:21.622Z,31.61
2023-05-30T12:41:40.656Z,31.59
2023-05-30T12:46:44.138Z,31.03
2023-05-30T12:51:46.377Z,31.33
2023-05-30T12:56:48.255Z,31.85
2023-05-30T13:01:50.158Z,30.95
2023-05-30T13:06:52.399Z,30.27
2023-05-30T13:11:54.225Z,30.33
2023-05-30T13:16:56.060Z,31.79
2023-05-30T13:21:58.728Z,31.49
2023-05-30T13:27:01.666Z,32.05
2023-05-30T13:32:03.562Z,31.03
2023-05-30T13:37:06.960Z,31.10
2023-05-30T13:42:08.926Z,32.33
2023-05-30T13:47:10.842Z,31.60
2023-05-30T13:52:12.597Z,31.92
2023-05-30T13:57:14.324Z,30.09
2023-05-30T14:02:16.156Z,30.46
2023-05-30T14:07:18.066Z,29.64
2023-05-30T14:12:19.804Z,30.08
2023-05-30T14:17:21.722Z,30.04
2023-05-30T14:22:23.513Z,30.64
2023-05-30T14:27:25.289Z,29.73
2023-05-30T14:32:27.356Z,29.23
2023-05-30T14:37:29.236Z,29.61
2023-05-30T14:42:31.829Z,30.15
2023-05-30T14:47:33.941Z,29.99
2023-05-30T14:52:35.862Z,30.58
2023-05-30T14:57:37.779Z,29.93
2023-05-30T15:02:39.707Z,29.61
2023-05-30T15:07:41.924Z,30.15
2023-05-30T15:12:43.691Z,30.58
2023-05-30T15:17:45.560Z,30.84
2023-05-30T15:22:47.416Z,30.62
2023-05-30T15:27:51.008Z,30.30
2023-05-30T15:32:54.930Z,30.20
2023-05-30T15:37:56.782Z,30.82
2023-05-30T15:42:58.585Z,30.74
2023-05-30T15:48:00.800Z,30.80
2023-05-30T15:53:02.590Z,31.07
2023-05-30T15:58:05.791Z,30.98
2023-05-30T16:03:07.757Z,30.89
2023-05-30T16:08:09.714Z,31.13
2023-05-30T16:13:11.799Z,30.48
2023-05-30T16:18:13.825Z,30.91
2023-05-30T16:23:16.383Z,30.73
2023-05-30T16:28:18.254Z,31.11
2023-05-30T16:33:20.012Z,30.81
2023-05-30T16:38:21.844Z,30.46
2023-05-30T16:43:23.794Z,30.76
2023-05-30T16:48:28.670Z,30.55
2023-05-30T16:54:27.518Z,31.68
2023-05-30T16:59:29.346Z,31.33
2023-05-30T17:04:31.189Z,31.38
2023-05-30T17:09:34.866Z,31.28
2023-05-30T17:14:37.020Z,31.67
2023-05-30T17:19:38.839Z,32.14
2023-05-30T17:24:40.901Z,32.57
2023-05-30T17:29:43.774Z,32.32
2023-05-30T17:34:46.074Z,31.06
2023-05-30T17:39:48.356Z,31.14
2023-05-30T17:44:51.709Z,32.19
2023-05-30T17:49:53.762Z,33.01
2023-05-30T17:54:55.738Z,34.06
2023-05-30T17:59:57.590Z,34.66
2023-05-30T18:04:59.969Z,35.45
2023-05-30T18:10:01.784Z,36.41
2023-05-30T18:15:03.669Z,37.09
2023-05-30T18:20:06.637Z,37.60
2023-05-30T18:25:09.288Z,38.26
2023-05-30T18:30:11.603Z,38.92
2023-05-30T18:35:13.454Z,39.77
2023-05-30T18:40:16.690Z,40.41
2023-05-30T18:45:18.438Z,40.82
2023-05-30T18:50:20.335Z,41.64
2023-05-30T18:55:22.302Z,42.36
2023-05-30T19:00:24.892Z,43.29
2023-05-30T19:05:26.731Z,43.97
2023-05-30T19:10:28.513Z,44.53
2023-05-30T19:15:31.542Z,45.32
2023-05-30T19:20:33.880Z,45.67
2023-05-30T19:25:36.333Z,46.04
2023-05-30T19:30:40.757Z,46.61
2023-05-30T19:35:42.807Z,47.12
2023-05-30T19:40:44.713Z,47.67
2023-05-30T19:45:46.646Z,48.07
2023-05-30T19:50:48.365Z,48.44
2023-05-30T19:55:50.373Z,48.76
2023-05-30T20:00:52.298Z,49.27
2023-05-30T20:05:54.088Z,49.43
2023-05-30T20:10:56.121Z,49.93
2023-05-30T20:15:57.932Z,50.13
2023-05-30T20:20:59.974Z,50.63
2023-05-30T20:26:02.075Z,51.13
2023-05-30T20:31:04.089Z,51.42
2023-05-30T20:36:06.608Z,51.87
2023-05-30T20:41:08.364Z,52.24
2023-05-30T20:46:10.125Z,52.55
2023-05-30T20:51:12.230Z,53.21
2023-05-30T20:56:13.996Z,53.64
2023-05-30T21:01:15.779Z,53.93
2023-05-30T21:06:17.710Z,54.34
2023-05-30T21:11:19.463Z,54.82
2023-05-30T21:16:25.432Z,55.05
2023-05-30T21:21:28.341Z,55.39
2023-05-30T21:26:31.038Z,55.82
2023-05-30T21:31:33.389Z,56.20
2023-05-30T21:36:38.280Z,56.94
2023-05-30T21:41:41.700Z,56.87
2023-05-30T21:46:43.900Z,57.09
2023-05-30T21:51:45.790Z,57.19
2023-05-30T21:56:48.170Z,57.28
2023-05-30T22:01:50.118Z,57.74
2023-05-30T22:07:11.952Z,57.98
2023-05-30T22:12:14.913Z,58.35
2023-05-30T22:17:18.445Z,58.75
2023-05-30T22:22:26.428Z,59.26
2023-05-30T22:27:28.157Z,60.15
2023-05-30T22:32:29.922Z,60.34
2023-05-30T22:37:31.667Z,60.65
2023-05-30T22:42:33.884Z,61.26
2023-05-30T22:47:35.982Z,61.93
2023-05-30T22:52:37.756Z,62.28
2023-05-30T22:57:39.495Z,62.92
2023-05-30T23:02:41.306Z,63.23
2023-05-30T23:07:43.166Z,63.08
2023-05-30T23:12:50.359Z,63.17
2023-05-30T23:17:52.981Z,63.47
2023-05-30T23:22:54.862Z,63.84
2023-05-30T23:27:56.931Z,64.43
2023-05-30T23:33:00.420Z,64.89
2023-05-30T23:38:02.228Z,65.19
2023-05-30T23:43:04.168Z,65.63
2023-05-30T23:48:06.253Z,65.80
2023-05-30T23:53:08.840Z,66.16
2023-05-30T23:58:13.128Z,66.37
